Avondale, Colorado
Current Conditions -  °F | °C
As of 10:53 AM on Thursday 18 Dec 2014 (Local Time) from KPUB Reporting Station
Clear Clear  
Wind Chill: 36°   Ceiling: Unl
Heat Index: 36°   Visibility: 10mi
Dew Point: 28°   Wind: 0mph
Humidity: 73%   Direction: NA
Pressure: 30.07"   Gusts: NA
Location:  38.24°N, 104.35°W
Report Text: KPUB 181753Z 00000KT 10SM CLR 02/M02 A3007 RMK AO2 SLP201 T00221022 10022 21106
Loading
Personal Weather Stations






























Interactive Weather Map New forecast layout! Learn more

10-Day Weather Forecast

Advertisements
Track Severe Weather on mobile